sensor_id;sensor_type;location;lat;lon;timestamp;temperature;humidity
66608;DHT22;53462;39.616;8.824;2022-09-03T00:08:06;24.80;90.20
66608;DHT22;53462;39.616;8.824;2022-09-03T00:10:54;24.80;90.10
66608;DHT22;53462;39.616;8.824;2022-09-03T00:13:31;24.80;90.20
66608;DHT22;53462;39.616;8.824;2022-09-03T00:16:02;24.80;89.90
66608;DHT22;53462;39.616;8.824;2022-09-03T00:18:31;24.80;89.80
66608;DHT22;53462;39.616;8.824;2022-09-03T00:21:11;24.80;89.70
66608;DHT22;53462;39.616;8.824;2022-09-03T00:23:41;24.80;89.60
66608;DHT22;53462;39.616;8.824;2022-09-03T00:28:58;24.80;89.00
66608;DHT22;53462;39.616;8.824;2022-09-03T00:31:38;24.80;88.90
66608;DHT22;53462;39.616;8.824;2022-09-03T00:34:34;24.80;88.50
66608;DHT22;53462;39.616;8.824;2022-09-03T00:37:04;24.80;88.30
66608;DHT22;53462;39.616;8.824;2022-09-03T00:39:30;24.70;87.90
66608;DHT22;53462;39.616;8.824;2022-09-03T00:52:59;24.60;86.30
66608;DHT22;53462;39.616;8.824;2022-09-03T01:00:42;24.60;85.70
66608;DHT22;53462;39.616;8.824;2022-09-03T01:03:41;24.70;85.70
66608;DHT22;53462;39.616;8.824;2022-09-03T01:14:12;24.60;86.50
66608;DHT22;53462;39.616;8.824;2022-09-03T01:30:43;24.60;86.50
66608;DHT22;53462;39.616;8.824;2022-09-03T01:33:23;24.60;86.70
66608;DHT22;53462;39.616;8.824;2022-09-03T01:38:49;24.60;86.50
66608;DHT22;53462;39.616;8.824;2022-09-03T01:41:43;24.70;86.10
66608;DHT22;53462;39.616;8.824;2022-09-03T01:53:05;24.70;85.20
66608;DHT22;53462;39.616;8.824;2022-09-03T01:58:28;24.70;84.90
66608;DHT22;53462;39.616;8.824;2022-09-03T02:01:04;24.70;84.80
66608;DHT22;53462;39.616;8.824;2022-09-03T02:03:37;24.70;84.70
66608;DHT22;53462;39.616;8.824;2022-09-03T02:06:03;24.70;84.80
66608;DHT22;53462;39.616;8.824;2022-09-03T02:08:30;24.70;84.70
66608;DHT22;53462;39.616;8.824;2022-09-03T02:10:57;24.80;84.40
66608;DHT22;53462;39.616;8.824;2022-09-03T02:13:43;24.70;84.30
66608;DHT22;53462;39.616;8.824;2022-09-03T02:16:15;24.70;84.20
66608;DHT22;53462;39.616;8.824;2022-09-03T02:19:00;24.70;84.10
66608;DHT22;53462;39.616;8.824;2022-09-03T02:21:36;24.70;84.00
66608;DHT22;53462;39.616;8.824;2022-09-03T02:24:04;24.70;83.90
66608;DHT22;53462;39.616;8.824;2022-09-03T02:26:31;24.80;83.80
66608;DHT22;53462;39.616;8.824;2022-09-03T02:28:57;24.80;83.70
66608;DHT22;53462;39.616;8.824;2022-09-03T02:31:23;24.80;83.50
66608;DHT22;53462;39.616;8.824;2022-09-03T02:33:50;24.70;83.60
66608;DHT22;53462;39.616;8.824;2022-09-03T02:36:19;24.70;83.40
66608;DHT22;53462;39.616;8.824;2022-09-03T02:38:46;24.70;83.30
66608;DHT22;53462;39.616;8.824;2022-09-03T02:41:12;24.70;82.80
66608;DHT22;53462;39.616;8.824;2022-09-03T02:43:53;24.70;82.70
66608;DHT22;53462;39.616;8.824;2022-09-03T02:46:30;24.70;82.60
66608;DHT22;53462;39.616;8.824;2022-09-03T02:48:58;24.70;82.50
66608;DHT22;53462;39.616;8.824;2022-09-03T02:51:24;24.70;82.30
66608;DHT22;53462;39.616;8.824;2022-09-03T02:53:50;24.70;82.20
66608;DHT22;53462;39.616;8.824;2022-09-03T02:56:16;24.70;82.20
66608;DHT22;53462;39.616;8.824;2022-09-03T02:58:42;24.70;82.20
66608;DHT22;53462;39.616;8.824;2022-09-03T03:01:08;24.70;82.00
66608;DHT22;53462;39.616;8.824;2022-09-03T03:03:34;24.70;82.10
66608;DHT22;53462;39.616;8.824;2022-09-03T03:06:02;24.70;82.20
66608;DHT22;53462;39.616;8.824;2022-09-03T03:08:29;24.70;82.30
66608;DHT22;53462;39.616;8.824;2022-09-03T03:10:57;24.70;82.50
66608;DHT22;53462;39.616;8.824;2022-09-03T03:13:26;24.70;82.60
66608;DHT22;53462;39.616;8.824;2022-09-03T03:16:00;24.70;82.80
66608;DHT22;53462;39.616;8.824;2022-09-03T03:18:27;24.70;83.10
66608;DHT22;53462;39.616;8.824;2022-09-03T03:20:53;24.60;83.30
66608;DHT22;53462;39.616;8.824;2022-09-03T03:23:20;24.70;83.30
66608;DHT22;53462;39.616;8.824;2022-09-03T03:25:46;24.70;83.30
66608;DHT22;53462;39.616;8.824;2022-09-03T03:28:12;24.60;83.50
66608;DHT22;53462;39.616;8.824;2022-09-03T03:30:38;24.60;83.60
66608;DHT22;53462;39.616;8.824;2022-09-03T03:33:05;24.50;83.60
66608;DHT22;53462;39.616;8.824;2022-09-03T03:35:32;24.50;83.60
66608;DHT22;53462;39.616;8.824;2022-09-03T03:37:58;24.50;83.20
66608;DHT22;53462;39.616;8.824;2022-09-03T03:40:24;24.50;83.20
66608;DHT22;53462;39.616;8.824;2022-09-03T03:42:50;24.50;83.20
66608;DHT22;53462;39.616;8.824;2022-09-03T03:45:16;24.50;83.10
66608;DHT22;53462;39.616;8.824;2022-09-03T03:47:42;24.50;83.00
66608;DHT22;53462;39.616;8.824;2022-09-03T03:50:08;24.50;82.90
66608;DHT22;53462;39.616;8.824;2022-09-03T03:52:34;24.40;82.70
66608;DHT22;53462;39.616;8.824;2022-09-03T03:55:00;24.50;82.30
66608;DHT22;53462;39.616;8.824;2022-09-03T03:57:29;24.40;81.80
66608;DHT22;53462;39.616;8.824;2022-09-03T03:59:56;24.40;81.50
66608;DHT22;53462;39.616;8.824;2022-09-03T04:02:22;24.40;81.30
66608;DHT22;53462;39.616;8.824;2022-09-03T04:04:48;24.40;81.20
66608;DHT22;53462;39.616;8.824;2022-09-03T04:07:14;24.30;81.30
66608;DHT22;53462;39.616;8.824;2022-09-03T04:09:40;24.40;81.00
66608;DHT22;53462;39.616;8.824;2022-09-03T04:12:06;24.30;80.80
66608;DHT22;53462;39.616;8.824;2022-09-03T04:14:34;24.30;80.80
66608;DHT22;53462;39.616;8.824;2022-09-03T04:17:00;24.30;80.70
66608;DHT22;53462;39.616;8.824;2022-09-03T04:19:27;24.30;80.60
66608;DHT22;53462;39.616;8.824;2022-09-03T04:21:55;24.30;80.40
66608;DHT22;53462;39.616;8.824;2022-09-03T04:24:21;24.20;80.40
66608;DHT22;53462;39.616;8.824;2022-09-03T04:26:47;24.20;80.50
66608;DHT22;53462;39.616;8.824;2022-09-03T04:29:15;24.30;80.40
66608;DHT22;53462;39.616;8.824;2022-09-03T04:31:41;24.20;80.30
66608;DHT22;53462;39.616;8.824;2022-09-03T04:34:30;24.20;80.10
66608;DHT22;53462;39.616;8.824;2022-09-03T04:36:56;24.10;80.20
66608;DHT22;53462;39.616;8.824;2022-09-03T04:39:25;24.20;80.10
66608;DHT22;53462;39.616;8.824;2022-09-03T04:41:51;24.10;80.10
66608;DHT22;53462;39.616;8.824;2022-09-03T04:44:17;24.10;80.00
66608;DHT22;53462;39.616;8.824;2022-09-03T04:46:43;24.10;80.00
66608;DHT22;53462;39.616;8.824;2022-09-03T04:49:12;24.10;79.80
66608;DHT22;53462;39.616;8.824;2022-09-03T04:51:38;24.20;79.60
66608;DHT22;53462;39.616;8.824;2022-09-03T04:54:04;24.30;79.10
66608;DHT22;53462;39.616;8.824;2022-09-03T04:56:32;24.30;79.00
66608;DHT22;53462;39.616;8.824;2022-09-03T04:59:01;24.40;78.80
66608;DHT22;53462;39.616;8.824;2022-09-03T05:01:29;24.40;78.60
66608;DHT22;53462;39.616;8.824;2022-09-03T05:03:56;24.40;78.30
66608;DHT22;53462;39.616;8.824;2022-09-03T05:06:24;24.40;78.30
66608;DHT22;53462;39.616;8.824;2022-09-03T05:08:51;24.50;78.00
66608;DHT22;53462;39.616;8.824;2022-09-03T05:11:18;24.50;77.90
66608;DHT22;53462;39.616;8.824;2022-09-03T05:13:49;24.60;77.60
66608;DHT22;53462;39.616;8.824;2022-09-03T05:16:17;24.50;77.60
66608;DHT22;53462;39.616;8.824;2022-09-03T05:18:44;24.50;77.60
66608;DHT22;53462;39.616;8.824;2022-09-03T05:21:13;24.50;77.40
66608;DHT22;53462;39.616;8.824;2022-09-03T05:23:42;24.50;77.50
66608;DHT22;53462;39.616;8.824;2022-09-03T05:26:15;24.50;77.60
66608;DHT22;53462;39.616;8.824;2022-09-03T05:28:42;24.50;77.70
66608;DHT22;53462;39.616;8.824;2022-09-03T05:31:15;24.60;77.70
66608;DHT22;53462;39.616;8.824;2022-09-03T05:33:46;24.70;78.10
66608;DHT22;53462;39.616;8.824;2022-09-03T05:36:17;24.70;79.00
66608;DHT22;53462;39.616;8.824;2022-09-03T05:38:44;24.70;79.40
66608;DHT22;53462;39.616;8.824;2022-09-03T05:41:12;24.80;80.20
66608;DHT22;53462;39.616;8.824;2022-09-03T05:43:39;24.80;80.70
66608;DHT22;53462;39.616;8.824;2022-09-03T05:46:10;24.80;80.90
66608;DHT22;53462;39.616;8.824;2022-09-03T05:48:38;24.90;81.10
66608;DHT22;53462;39.616;8.824;2022-09-03T05:51:07;24.90;81.30
66608;DHT22;53462;39.616;8.824;2022-09-03T05:53:35;24.90;81.60
66608;DHT22;53462;39.616;8.824;2022-09-03T05:56:06;24.90;81.90
66608;DHT22;53462;39.616;8.824;2022-09-03T05:58:38;24.90;81.80
66608;DHT22;53462;39.616;8.824;2022-09-03T06:01:28;25.00;82.10
66608;DHT22;53462;39.616;8.824;2022-09-03T06:03:57;25.00;82.50
66608;DHT22;53462;39.616;8.824;2022-09-03T06:06:25;25.00;83.30
66608;DHT22;53462;39.616;8.824;2022-09-03T06:08:53;25.00;84.10
66608;DHT22;53462;39.616;8.824;2022-09-03T06:11:20;25.00;84.30
66608;DHT22;53462;39.616;8.824;2022-09-03T06:13:48;25.10;84.10
66608;DHT22;53462;39.616;8.824;2022-09-03T06:16:14;25.10;82.90
66608;DHT22;53462;39.616;8.824;2022-09-03T06:18:40;25.10;82.50
66608;DHT22;53462;39.616;8.824;2022-09-03T06:21:07;25.20;82.80
66608;DHT22;53462;39.616;8.824;2022-09-03T06:23:34;25.20;83.00
66608;DHT22;53462;39.616;8.824;2022-09-03T06:28:37;25.30;82.60
66608;DHT22;53462;39.616;8.824;2022-09-03T06:31:05;25.30;82.10
66608;DHT22;53462;39.616;8.824;2022-09-03T06:33:33;25.40;81.80
66608;DHT22;53462;39.616;8.824;2022-09-03T06:36:01;25.40;82.20
66608;DHT22;53462;39.616;8.824;2022-09-03T06:38:29;25.50;82.40
66608;DHT22;53462;39.616;8.824;2022-09-03T06:41:02;25.50;83.30
66608;DHT22;53462;39.616;8.824;2022-09-03T06:43:31;25.50;83.80
66608;DHT22;53462;39.616;8.824;2022-09-03T06:46:00;25.60;83.70
66608;DHT22;53462;39.616;8.824;2022-09-03T06:48:27;25.60;83.70
66608;DHT22;53462;39.616;8.824;2022-09-03T06:50:58;25.60;84.00
66608;DHT22;53462;39.616;8.824;2022-09-03T06:53:26;25.60;84.10
66608;DHT22;53462;39.616;8.824;2022-09-03T06:56:00;25.60;83.70
66608;DHT22;53462;39.616;8.824;2022-09-03T06:58:37;25.60;83.80
66608;DHT22;53462;39.616;8.824;2022-09-03T07:03:35;25.70;83.20
66608;DHT22;53462;39.616;8.824;2022-09-03T07:06:07;25.70;83.50
66608;DHT22;53462;39.616;8.824;2022-09-03T07:08:33;25.70;83.40
66608;DHT22;53462;39.616;8.824;2022-09-03T07:11:00;25.80;83.40
66608;DHT22;53462;39.616;8.824;2022-09-03T07:13:30;25.80;83.20
66608;DHT22;53462;39.616;8.824;2022-09-03T07:16:05;25.80;83.10
66608;DHT22;53462;39.616;8.824;2022-09-03T07:18:32;25.90;82.90
66608;DHT22;53462;39.616;8.824;2022-09-03T07:21:04;26.00;82.40
66608;DHT22;53462;39.616;8.824;2022-09-03T07:23:31;26.30;82.00
66608;DHT22;53462;39.616;8.824;2022-09-03T07:26:00;26.70;80.60
66608;DHT22;53462;39.616;8.824;2022-09-03T07:28:26;27.00;79.10
66608;DHT22;53462;39.616;8.824;2022-09-03T07:30:53;26.80;78.90
66608;DHT22;53462;39.616;8.824;2022-09-03T07:33:20;26.70;79.70
66608;DHT22;53462;39.616;8.824;2022-09-03T07:35:46;27.00;79.30
66608;DHT22;53462;39.616;8.824;2022-09-03T07:38:18;27.10;78.40
66608;DHT22;53462;39.616;8.824;2022-09-03T07:40:45;27.40;77.80
66608;DHT22;53462;39.616;8.824;2022-09-03T07:43:12;27.50;76.80
66608;DHT22;53462;39.616;8.824;2022-09-03T07:45:38;27.60;77.10
66608;DHT22;53462;39.616;8.824;2022-09-03T07:48:04;27.60;76.90
66608;DHT22;53462;39.616;8.824;2022-09-03T07:50:30;27.40;77.40
66608;DHT22;53462;39.616;8.824;2022-09-03T07:53:02;27.60;76.90
66608;DHT22;53462;39.616;8.824;2022-09-03T07:55:28;28.10;75.30
66608;DHT22;53462;39.616;8.824;2022-09-03T07:57:55;28.40;73.80
66608;DHT22;53462;39.616;8.824;2022-09-03T08:00:21;28.50;73.00
66608;DHT22;53462;39.616;8.824;2022-09-03T08:02:47;28.40;72.80
66608;DHT22;53462;39.616;8.824;2022-09-03T08:05:13;28.50;73.20
66608;DHT22;53462;39.616;8.824;2022-09-03T08:07:39;28.60;73.00
66608;DHT22;53462;39.616;8.824;2022-09-03T08:10:05;28.30;72.10
66608;DHT22;53462;39.616;8.824;2022-09-03T08:12:31;28.70;71.70
66608;DHT22;53462;39.616;8.824;2022-09-03T08:14:57;29.00;70.10
66608;DHT22;53462;39.616;8.824;2022-09-03T08:17:24;29.30;68.40
66608;DHT22;53462;39.616;8.824;2022-09-03T08:19:50;29.60;67.80
66608;DHT22;53462;39.616;8.824;2022-09-03T08:22:16;29.50;66.30
66608;DHT22;53462;39.616;8.824;2022-09-03T08:24:42;29.80;67.00
66608;DHT22;53462;39.616;8.824;2022-09-03T08:27:08;30.00;64.90
66608;DHT22;53462;39.616;8.824;2022-09-03T08:29:34;30.50;62.40
66608;DHT22;53462;39.616;8.824;2022-09-03T08:32:00;30.30;62.80
66608;DHT22;53462;39.616;8.824;2022-09-03T08:34:26;30.10;62.00
66608;DHT22;53462;39.616;8.824;2022-09-03T08:36:52;30.60;61.20
66608;DHT22;53462;39.616;8.824;2022-09-03T08:39:19;31.10;58.80
66608;DHT22;53462;39.616;8.824;2022-09-03T08:50:15;31.50;56.80
66608;DHT22;53462;39.616;8.824;2022-09-03T08:52:50;31.60;54.80
66608;DHT22;53462;39.616;8.824;2022-09-03T08:55:35;31.90;55.50
66608;DHT22;53462;39.616;8.824;2022-09-03T08:58:16;32.40;55.00
66608;DHT22;53462;39.616;8.824;2022-09-03T09:22:42;33.10;49.90
66608;DHT22;53462;39.616;8.824;2022-09-03T09:25:19;33.30;48.50
66608;DHT22;53462;39.616;8.824;2022-09-03T09:28:00;33.30;48.40
66608;DHT22;53462;39.616;8.824;2022-09-03T09:30:29;33.70;47.90
66608;DHT22;53462;39.616;8.824;2022-09-03T09:32:56;34.20;47.10
66608;DHT22;53462;39.616;8.824;2022-09-03T09:35:23;34.40;46.60
66608;DHT22;53462;39.616;8.824;2022-09-03T09:37:52;34.10;46.30
66608;DHT22;53462;39.616;8.824;2022-09-03T09:40:37;34.00;46.90
66608;DHT22;53462;39.616;8.824;2022-09-03T09:43:09;34.40;45.40
66608;DHT22;53462;39.616;8.824;2022-09-03T09:45:44;34.40;46.10
66608;DHT22;53462;39.616;8.824;2022-09-03T09:50:42;33.60;45.90
66608;DHT22;53462;39.616;8.824;2022-09-03T09:53:09;33.60;46.40
66608;DHT22;53462;39.616;8.824;2022-09-03T09:55:53;34.60;44.90
66608;DHT22;53462;39.616;8.824;2022-09-03T09:58:21;35.20;43.30
66608;DHT22;53462;39.616;8.824;2022-09-03T10:01:17;34.70;42.30
66608;DHT22;53462;39.616;8.824;2022-09-03T10:03:57;34.20;43.40
66608;DHT22;53462;39.616;8.824;2022-09-03T10:06:29;34.30;38.80
66608;DHT22;53462;39.616;8.824;2022-09-03T10:09:16;33.80;39.70
66608;DHT22;53462;39.616;8.824;2022-09-03T10:12:08;33.60;40.00
66608;DHT22;53462;39.616;8.824;2022-09-03T10:17:48;33.50;40.80
66608;DHT22;53462;39.616;8.824;2022-09-03T10:20:37;33.50;39.80
66608;DHT22;53462;39.616;8.824;2022-09-03T10:23:06;33.40;41.00
66608;DHT22;53462;39.616;8.824;2022-09-03T10:25:56;33.30;42.00
66608;DHT22;53462;39.616;8.824;2022-09-03T10:28:27;33.40;40.80
66608;DHT22;53462;39.616;8.824;2022-09-03T10:34:09;33.30;41.80
66608;DHT22;53462;39.616;8.824;2022-09-03T10:36:54;32.80;42.70
66608;DHT22;53462;39.616;8.824;2022-09-03T10:45:06;33.30;41.80
66608;DHT22;53462;39.616;8.824;2022-09-03T10:50:29;33.50;42.30
66608;DHT22;53462;39.616;8.824;2022-09-03T10:53:30;33.30;43.20
66608;DHT22;53462;39.616;8.824;2022-09-03T11:01:43;33.40;40.30
66608;DHT22;53462;39.616;8.824;2022-09-03T11:04:24;33.60;41.70
66608;DHT22;53462;39.616;8.824;2022-09-03T11:07:02;33.80;41.50
66608;DHT22;53462;39.616;8.824;2022-09-03T11:12:25;33.90;40.50
66608;DHT22;53462;39.616;8.824;2022-09-03T11:15:05;33.40;40.40
66608;DHT22;53462;39.616;8.824;2022-09-03T11:20:28;34.00;40.80
66608;DHT22;53462;39.616;8.824;2022-09-03T11:23:00;34.10;40.90
66608;DHT22;53462;39.616;8.824;2022-09-03T11:25:36;34.10;40.90
66608;DHT22;53462;39.616;8.824;2022-09-03T11:28:29;34.10;40.80
66608;DHT22;53462;39.616;8.824;2022-09-03T11:33:59;34.00;41.70
66608;DHT22;53462;39.616;8.824;2022-09-03T11:36:33;34.20;42.30
66608;DHT22;53462;39.616;8.824;2022-09-03T11:38:59;35.00;41.20
66608;DHT22;53462;39.616;8.824;2022-09-03T11:41:27;34.70;41.00
66608;DHT22;53462;39.616;8.824;2022-09-03T11:44:19;34.60;41.20
66608;DHT22;53462;39.616;8.824;2022-09-03T11:46:54;34.40;41.40
66608;DHT22;53462;39.616;8.824;2022-09-03T11:49:31;34.30;42.00
66608;DHT22;53462;39.616;8.824;2022-09-03T11:52:02;34.00;43.00
66608;DHT22;53462;39.616;8.824;2022-09-03T11:54:42;34.00;42.80
66608;DHT22;53462;39.616;8.824;2022-09-03T11:57:13;34.20;42.60
66608;DHT22;53462;39.616;8.824;2022-09-03T11:59:42;34.10;42.50
66608;DHT22;53462;39.616;8.824;2022-09-03T12:02:30;34.60;41.20
66608;DHT22;53462;39.616;8.824;2022-09-03T12:16:14;35.80;39.00
66608;DHT22;53462;39.616;8.824;2022-09-03T12:18:45;35.80;37.70
66608;DHT22;53462;39.616;8.824;2022-09-03T12:21:18;35.30;39.20
66608;DHT22;53462;39.616;8.824;2022-09-03T12:23:47;35.30;40.00
66608;DHT22;53462;39.616;8.824;2022-09-03T12:26:25;35.40;40.00
66608;DHT22;53462;39.616;8.824;2022-09-03T12:28:54;35.80;39.30
66608;DHT22;53462;39.616;8.824;2022-09-03T12:31:26;35.60;39.50
66608;DHT22;53462;39.616;8.824;2022-09-03T12:34:15;35.20;39.60
66608;DHT22;53462;39.616;8.824;2022-09-03T12:36:49;34.70;42.20
66608;DHT22;53462;39.616;8.824;2022-09-03T12:39:22;34.80;41.50
66608;DHT22;53462;39.616;8.824;2022-09-03T12:42:04;35.10;41.20
66608;DHT22;53462;39.616;8.824;2022-09-03T12:47:06;37.00;35.90
66608;DHT22;53462;39.616;8.824;2022-09-03T12:49:40;37.70;34.20
66608;DHT22;53462;39.616;8.824;2022-09-03T12:54:56;37.70;35.10
66608;DHT22;53462;39.616;8.824;2022-09-03T12:57:28;37.80;34.50
66608;DHT22;53462;39.616;8.824;2022-09-03T12:59:58;38.00;32.00
66608;DHT22;53462;39.616;8.824;2022-09-03T13:02:57;37.80;36.00
66608;DHT22;53462;39.616;8.824;2022-09-03T13:05:41;37.70;37.10
66608;DHT22;53462;39.616;8.824;2022-09-03T13:08:13;37.90;37.00
66608;DHT22;53462;39.616;8.824;2022-09-03T13:10:42;38.00;38.40
66608;DHT22;53462;39.616;8.824;2022-09-03T13:15:40;38.00;37.90
66608;DHT22;53462;39.616;8.824;2022-09-03T13:18:15;37.60;37.50
66608;DHT22;53462;39.616;8.824;2022-09-03T13:20:58;37.20;39.00
66608;DHT22;53462;39.616;8.824;2022-09-03T13:28:37;37.30;39.60
66608;DHT22;53462;39.616;8.824;2022-09-03T13:34:07;37.50;38.20
66608;DHT22;53462;39.616;8.824;2022-09-03T13:36:48;37.10;38.80
66608;DHT22;53462;39.616;8.824;2022-09-03T13:39:36;37.00;39.00
66608;DHT22;53462;39.616;8.824;2022-09-03T13:42:17;36.90;39.20
66608;DHT22;53462;39.616;8.824;2022-09-03T13:45:00;36.70;38.20
66608;DHT22;53462;39.616;8.824;2022-09-03T13:50:07;36.40;34.50
66608;DHT22;53462;39.616;8.824;2022-09-03T13:53:27;36.50;35.30
66608;DHT22;53462;39.616;8.824;2022-09-03T13:55:54;36.50;36.00
66608;DHT22;53462;39.616;8.824;2022-09-03T14:03:29;36.40;37.20
66608;DHT22;53462;39.616;8.824;2022-09-03T14:06:00;36.10;37.80
66608;DHT22;53462;39.616;8.824;2022-09-03T14:20:18;35.60;37.20
66608;DHT22;53462;39.616;8.824;2022-09-03T14:25:57;35.50;38.30
66608;DHT22;53462;39.616;8.824;2022-09-03T14:31:06;35.20;39.80
66608;DHT22;53462;39.616;8.824;2022-09-03T14:56:16;34.70;37.10
66608;DHT22;53462;39.616;8.824;2022-09-03T14:59:22;34.60;35.90
66608;DHT22;53462;39.616;8.824;2022-09-03T15:05:06;34.50;31.90
66608;DHT22;53462;39.616;8.824;2022-09-03T15:10:36;34.50;31.60
66608;DHT22;53462;39.616;8.824;2022-09-03T15:24:15;34.30;32.80
66608;DHT22;53462;39.616;8.824;2022-09-03T15:29:50;34.30;34.70
66608;DHT22;53462;39.616;8.824;2022-09-03T15:35:08;34.00;35.90
66608;DHT22;53462;39.616;8.824;2022-09-03T15:37:59;33.70;36.30
66608;DHT22;53462;39.616;8.824;2022-09-03T15:40:27;33.40;35.40
66608;DHT22;53462;39.616;8.824;2022-09-03T15:43:07;33.40;39.40
66608;DHT22;53462;39.616;8.824;2022-09-03T15:48:20;32.90;39.50
66608;DHT22;53462;39.616;8.824;2022-09-03T15:53:59;32.80;42.10
66608;DHT22;53462;39.616;8.824;2022-09-03T16:01:43;32.60;42.50
66608;DHT22;53462;39.616;8.824;2022-09-03T16:09:50;32.50;42.80
66608;DHT22;53462;39.616;8.824;2022-09-03T16:12:35;32.50;43.20
66608;DHT22;53462;39.616;8.824;2022-09-03T16:20:18;32.40;43.40
66608;DHT22;53462;39.616;8.824;2022-09-03T16:23:03;32.30;44.00
66608;DHT22;53462;39.616;8.824;2022-09-03T16:28:52;32.00;45.00
66608;DHT22;53462;39.616;8.824;2022-09-03T16:34:55;31.80;45.50
66608;DHT22;53462;39.616;8.824;2022-09-03T16:40:40;31.60;46.10
66608;DHT22;53462;39.616;8.824;2022-09-03T16:46:39;31.40;46.10
66608;DHT22;53462;39.616;8.824;2022-09-03T16:49:18;31.40;46.20
66608;DHT22;53462;39.616;8.824;2022-09-03T16:58:09;31.10;48.20
66608;DHT22;53462;39.616;8.824;2022-09-03T17:04:07;31.10;49.70
66608;DHT22;53462;39.616;8.824;2022-09-03T17:12:24;30.70;50.00
66608;DHT22;53462;39.616;8.824;2022-09-03T17:26:34;29.90;56.20
66608;DHT22;53462;39.616;8.824;2022-09-03T17:30:04;29.90;57.00
66608;DHT22;53462;39.616;8.824;2022-09-03T17:35:20;29.70;57.70
66608;DHT22;53462;39.616;8.824;2022-09-03T17:38:12;29.70;58.10
66608;DHT22;53462;39.616;8.824;2022-09-03T17:41:11;29.50;58.70
66608;DHT22;53462;39.616;8.824;2022-09-03T17:44:12;29.50;58.40
66608;DHT22;53462;39.616;8.824;2022-09-03T17:46:53;29.40;57.20
66608;DHT22;53462;39.616;8.824;2022-09-03T17:49:31;29.30;60.50
66608;DHT22;53462;39.616;8.824;2022-09-03T17:52:03;29.30;59.40
66608;DHT22;53462;39.616;8.824;2022-09-03T17:54:42;29.30;59.40
66608;DHT22;53462;39.616;8.824;2022-09-03T17:58:27;29.30;59.90
66608;DHT22;53462;39.616;8.824;2022-09-03T18:00:43;29.20;60.20
66608;DHT22;53462;39.616;8.824;2022-09-03T18:03:18;29.20;60.20
66608;DHT22;53462;39.616;8.824;2022-09-03T18:05:59;29.00;61.80
66608;DHT22;53462;39.616;8.824;2022-09-03T18:12:31;29.00;62.40
66608;DHT22;53462;39.616;8.824;2022-09-03T18:14:48;28.90;62.00
66608;DHT22;53462;39.616;8.824;2022-09-03T18:20:21;28.90;62.10
66608;DHT22;53462;39.616;8.824;2022-09-03T18:23:21;28.90;62.70
66608;DHT22;53462;39.616;8.824;2022-09-03T18:26:19;28.70;63.00
66608;DHT22;53462;39.616;8.824;2022-09-03T18:32:22;28.60;64.80
66608;DHT22;53462;39.616;8.824;2022-09-03T18:35:07;28.50;64.20
66608;DHT22;53462;39.616;8.824;2022-09-03T18:37:52;28.40;64.80
66608;DHT22;53462;39.616;8.824;2022-09-03T18:40:46;28.30;65.80
66608;DHT22;53462;39.616;8.824;2022-09-03T18:44:05;28.20;65.40
66608;DHT22;53462;39.616;8.824;2022-09-03T18:53:07;28.20;65.60
66608;DHT22;53462;39.616;8.824;2022-09-03T18:56:06;28.10;66.20
66608;DHT22;53462;39.616;8.824;2022-09-03T18:59:24;28.00;66.30
66608;DHT22;53462;39.616;8.824;2022-09-03T19:09:13;27.90;68.40
66608;DHT22;53462;39.616;8.824;2022-09-03T19:15:33;27.60;69.90
66608;DHT22;53462;39.616;8.824;2022-09-03T19:21:47;27.70;71.00
66608;DHT22;53462;39.616;8.824;2022-09-03T19:24:33;27.70;71.30
66608;DHT22;53462;39.616;8.824;2022-09-03T19:33:46;27.20;74.00
66608;DHT22;53462;39.616;8.824;2022-09-03T19:48:10;27.10;71.30
66608;DHT22;53462;39.616;8.824;2022-09-03T19:53:47;27.00;71.60
66608;DHT22;53462;39.616;8.824;2022-09-03T19:56:33;26.70;71.90
66608;DHT22;53462;39.616;8.824;2022-09-03T19:59:22;26.60;72.60
66608;DHT22;53462;39.616;8.824;2022-09-03T20:02:08;26.60;73.10
66608;DHT22;53462;39.616;8.824;2022-09-03T20:04:57;26.70;72.70
66608;DHT22;53462;39.616;8.824;2022-09-03T20:07:43;26.80;72.70
66608;DHT22;53462;39.616;8.824;2022-09-03T20:10:28;26.70;73.20
66608;DHT22;53462;39.616;8.824;2022-09-03T20:13:07;26.80;73.20
66608;DHT22;53462;39.616;8.824;2022-09-03T20:29:57;26.50;73.60
66608;DHT22;53462;39.616;8.824;2022-09-03T20:40:52;26.70;72.70
66608;DHT22;53462;39.616;8.824;2022-09-03T20:51:21;26.50;69.00
66608;DHT22;53462;39.616;8.824;2022-09-03T20:54:13;26.60;65.50
66608;DHT22;53462;39.616;8.824;2022-09-03T21:10:49;26.50;64.90
66608;DHT22;53462;39.616;8.824;2022-09-03T21:24:19;26.30;64.60
66608;DHT22;53462;39.616;8.824;2022-09-03T21:26:53;26.10;68.50
66608;DHT22;53462;39.616;8.824;2022-09-03T21:30:13;26.00;69.60
66608;DHT22;53462;39.616;8.824;2022-09-03T21:32:20;25.90;70.10
66608;DHT22;53462;39.616;8.824;2022-09-03T21:35:00;25.80;71.60
66608;DHT22;53462;39.616;8.824;2022-09-03T21:37:33;25.80;72.20
66608;DHT22;53462;39.616;8.824;2022-09-03T21:40:00;25.80;71.80
66608;DHT22;53462;39.616;8.824;2022-09-03T21:47:52;25.70;71.40
66608;DHT22;53462;39.616;8.824;2022-09-03T21:50:28;25.70;70.60
66608;DHT22;53462;39.616;8.824;2022-09-03T21:53:21;25.60;69.80
66608;DHT22;53462;39.616;8.824;2022-09-03T22:04:50;25.60;67.20
66608;DHT22;53462;39.616;8.824;2022-09-03T22:07:38;25.80;67.40
66608;DHT22;53462;39.616;8.824;2022-09-03T22:13:01;25.70;68.10
66608;DHT22;53462;39.616;8.824;2022-09-03T22:15:35;25.80;68.30
66608;DHT22;53462;39.616;8.824;2022-09-03T22:20:58;25.90;69.60
66608;DHT22;53462;39.616;8.824;2022-09-03T22:40:27;25.80;71.50
66608;DHT22;53462;39.616;8.824;2022-09-03T22:46:11;25.80;71.80
66608;DHT22;53462;39.616;8.824;2022-09-03T22:51:22;25.90;72.50
66608;DHT22;53462;39.616;8.824;2022-09-03T22:56:31;25.70;73.00
66608;DHT22;53462;39.616;8.824;2022-09-03T23:01:56;25.90;77.30
66608;DHT22;53462;39.616;8.824;2022-09-03T23:04:28;25.60;80.20
66608;DHT22;53462;39.616;8.824;2022-09-03T23:09:38;25.40;83.80
66608;DHT22;53462;39.616;8.824;2022-09-03T23:12:14;25.40;83.90
66608;DHT22;53462;39.616;8.824;2022-09-03T23:14:45;25.30;84.30
66608;DHT22;53462;39.616;8.824;2022-09-03T23:17:28;25.30;84.40
66608;DHT22;53462;39.616;8.824;2022-09-03T23:20:24;25.40;84.10
66608;DHT22;53462;39.616;8.824;2022-09-03T23:22:57;25.40;84.50
66608;DHT22;53462;39.616;8.824;2022-09-03T23:25:40;25.40;84.50
66608;DHT22;53462;39.616;8.824;2022-09-03T23:28:18;25.20;85.30
66608;DHT22;53462;39.616;8.824;2022-09-03T23:30:46;25.20;85.70
66608;DHT22;53462;39.616;8.824;2022-09-03T23:33:12;25.20;85.20
66608;DHT22;53462;39.616;8.824;2022-09-03T23:35:56;25.30;86.10
66608;DHT22;53462;39.616;8.824;2022-09-03T23:41:25;25.30;86.30
66608;DHT22;53462;39.616;8.824;2022-09-03T23:44:03;25.40;85.80
66608;DHT22;53462;39.616;8.824;2022-09-03T23:46:35;25.30;86.10
